Swan Point, Maryland
Current Conditions -  °F | °C
As of 11:02 PM on Sunday 23 Nov 2014 (Local Time) from K2W6 Reporting Station
Overcast Overcast  
Wind Chill: 57°   Ceiling: 2100
Heat Index: 57°   Visibility: 10mi
Dew Point: 54°   Wind: 6mph
Humidity: 88%   Direction: 120°ESE
Pressure: 29.88"   Gusts: NA
Location:  38.3032°N, 76.8671°W
Report Text: K2W6 240402Z AUTO 12005KT 10SM BKN021 OVC028 14/12 A2988 RMK AO1
Loading
Personal Weather Stations






























Interactive Weather Map New forecast layout! Learn more

10-Day Weather Forecast

Advertisements
Track Severe Weather on mobile